sensor_id;sensor_type;location;lat;lon;timestamp;P1;durP1;ratioP1;P2;durP2;ratioP2
25449;SDS011;13371;52.080;5.624;2023-10-13T00:02:05;25.50;;;14.03;;
25449;SDS011;13371;52.080;5.624;2023-10-13T00:04:31;28.08;;;13.90;;
25449;SDS011;13371;52.080;5.624;2023-10-13T00:07:04;22.73;;;14.10;;
25449;SDS011;13371;52.080;5.624;2023-10-13T00:09:52;27.23;;;14.88;;
25449;SDS011;13371;52.080;5.624;2023-10-13T00:12:18;31.77;;;14.45;;
25449;SDS011;13371;52.080;5.624;2023-10-13T00:14:48;28.10;;;15.55;;
25449;SDS011;13371;52.080;5.624;2023-10-13T00:17:16;26.02;;;14.82;;
25449;SDS011;13371;52.080;5.624;2023-10-13T00:19:45;28.38;;;15.48;;
25449;SDS011;13371;52.080;5.624;2023-10-13T00:22:12;28.38;;;16.08;;
25449;SDS011;13371;52.080;5.624;2023-10-13T00:24:42;32.40;;;16.45;;
25449;SDS011;13371;52.080;5.624;2023-10-13T00:27:11;29.40;;;16.30;;
25449;SDS011;13371;52.080;5.624;2023-10-13T00:29:54;28.17;;;16.52;;
25449;SDS011;13371;52.080;5.624;2023-10-13T00:32:45;33.47;;;16.63;;
25449;SDS011;13371;52.080;5.624;2023-10-13T00:35:18;29.00;;;16.15;;
25449;SDS011;13371;52.080;5.624;2023-10-13T00:37:51;26.17;;;16.20;;
25449;SDS011;13371;52.080;5.624;2023-10-13T00:40:29;31.98;;;16.00;;
25449;SDS011;13371;52.080;5.624;2023-10-13T00:42:56;27.65;;;16.17;;
25449;SDS011;13371;52.080;5.624;2023-10-13T00:45:43;29.58;;;18.00;;
25449;SDS011;13371;52.080;5.624;2023-10-13T00:48:20;31.55;;;18.33;;
25449;SDS011;13371;52.080;5.624;2023-10-13T00:50:49;29.20;;;16.63;;
25449;SDS011;13371;52.080;5.624;2023-10-13T00:53:15;36.83;;;18.38;;
25449;SDS011;13371;52.080;5.624;2023-10-13T00:55:41;28.42;;;17.77;;
25449;SDS011;13371;52.080;5.624;2023-10-13T00:58:07;28.50;;;17.35;;
25449;SDS011;13371;52.080;5.624;2023-10-13T01:00:37;26.90;;;16.83;;
25449;SDS011;13371;52.080;5.624;2023-10-13T01:03:12;33.22;;;16.95;;
25449;SDS011;13371;52.080;5.624;2023-10-13T01:05:38;29.38;;;16.95;;
25449;SDS011;13371;52.080;5.624;2023-10-13T01:08:05;31.55;;;17.55;;
25449;SDS011;13371;52.080;5.624;2023-10-13T01:10:35;25.75;;;17.00;;
25449;SDS011;13371;52.080;5.624;2023-10-13T01:13:02;28.80;;;16.20;;
25449;SDS011;13371;52.080;5.624;2023-10-13T01:15:28;27.45;;;16.35;;
25449;SDS011;13371;52.080;5.624;2023-10-13T01:18:08;27.73;;;17.40;;
25449;SDS011;13371;52.080;5.624;2023-10-13T01:20:39;30.65;;;16.92;;
25449;SDS011;13371;52.080;5.624;2023-10-13T01:23:11;30.33;;;15.85;;
25449;SDS011;13371;52.080;5.624;2023-10-13T01:25:43;29.98;;;16.45;;
25449;SDS011;13371;52.080;5.624;2023-10-13T01:28:10;29.38;;;16.95;;
25449;SDS011;13371;52.080;5.624;2023-10-13T01:30:40;24.65;;;16.85;;
25449;SDS011;13371;52.080;5.624;2023-10-13T01:33:07;30.92;;;16.83;;
25449;SDS011;13371;52.080;5.624;2023-10-13T01:35:34;34.80;;;16.77;;
25449;SDS011;13371;52.080;5.624;2023-10-13T01:38:12;23.85;;;14.88;;
25449;SDS011;13371;52.080;5.624;2023-10-13T01:40:38;32.42;;;15.15;;
25449;SDS011;13371;52.080;5.624;2023-10-13T01:43:04;33.78;;;15.95;;
25449;SDS011;13371;52.080;5.624;2023-10-13T01:45:35;27.70;;;15.48;;
25449;SDS011;13371;52.080;5.624;2023-10-13T01:48:04;27.77;;;14.70;;
25449;SDS011;13371;52.080;5.624;2023-10-13T01:50:31;24.48;;;15.05;;
25449;SDS011;13371;52.080;5.624;2023-10-13T01:52:57;26.63;;;14.25;;
25449;SDS011;13371;52.080;5.624;2023-10-13T01:55:38;23.00;;;14.38;;
25449;SDS011;13371;52.080;5.624;2023-10-13T01:58:07;20.42;;;13.25;;
25449;SDS011;13371;52.080;5.624;2023-10-13T02:00:40;20.60;;;13.80;;
25449;SDS011;13371;52.080;5.624;2023-10-13T02:03:10;26.65;;;14.10;;
25449;SDS011;13371;52.080;5.624;2023-10-13T02:05:42;21.63;;;13.30;;
25449;SDS011;13371;52.080;5.624;2023-10-13T02:08:12;24.20;;;14.20;;
25449;SDS011;13371;52.080;5.624;2023-10-13T02:10:42;21.92;;;13.43;;
25449;SDS011;13371;52.080;5.624;2023-10-13T02:13:10;23.15;;;13.63;;
25449;SDS011;13371;52.080;5.624;2023-10-13T02:15:41;22.48;;;13.13;;
25449;SDS011;13371;52.080;5.624;2023-10-13T02:18:10;23.80;;;12.50;;
25449;SDS011;13371;52.080;5.624;2023-10-13T02:20:45;20.42;;;12.85;;
25449;SDS011;13371;52.080;5.624;2023-10-13T02:23:20;22.73;;;13.13;;
25449;SDS011;13371;52.080;5.624;2023-10-13T02:25:50;19.45;;;11.80;;
25449;SDS011;13371;52.080;5.624;2023-10-13T02:28:26;19.98;;;12.05;;
25449;SDS011;13371;52.080;5.624;2023-10-13T02:30:55;22.02;;;12.27;;
25449;SDS011;13371;52.080;5.624;2023-10-13T02:33:22;18.65;;;11.65;;
25449;SDS011;13371;52.080;5.624;2023-10-13T02:35:56;22.73;;;10.90;;
25449;SDS011;13371;52.080;5.624;2023-10-13T02:38:22;19.73;;;9.90;;
25449;SDS011;13371;52.080;5.624;2023-10-13T02:41:03;20.33;;;10.55;;
25449;SDS011;13371;52.080;5.624;2023-10-13T02:43:35;17.25;;;10.52;;
25449;SDS011;13371;52.080;5.624;2023-10-13T02:46:01;20.60;;;10.68;;
25449;SDS011;13371;52.080;5.624;2023-10-13T02:48:28;18.13;;;10.20;;
25449;SDS011;13371;52.080;5.624;2023-10-13T02:50:57;18.95;;;10.75;;
25449;SDS011;13371;52.080;5.624;2023-10-13T02:53:27;18.52;;;9.98;;
25449;SDS011;13371;52.080;5.624;2023-10-13T02:55:54;20.60;;;11.15;;
25449;SDS011;13371;52.080;5.624;2023-10-13T02:58:31;24.10;;;10.88;;
25449;SDS011;13371;52.080;5.624;2023-10-13T03:01:04;20.40;;;9.85;;
25449;SDS011;13371;52.080;5.624;2023-10-13T03:03:42;18.75;;;9.82;;
25449;SDS011;13371;52.080;5.624;2023-10-13T03:06:15;21.75;;;11.18;;
25449;SDS011;13371;52.080;5.624;2023-10-13T03:08:41;18.98;;;10.15;;
25449;SDS011;13371;52.080;5.624;2023-10-13T03:11:08;16.48;;;10.13;;
25449;SDS011;13371;52.080;5.624;2023-10-13T03:13:35;23.55;;;9.82;;
25449;SDS011;13371;52.080;5.624;2023-10-13T03:16:01;16.83;;;10.23;;
25449;SDS011;13371;52.080;5.624;2023-10-13T03:18:36;20.98;;;10.20;;
25449;SDS011;13371;52.080;5.624;2023-10-13T03:21:03;18.33;;;10.63;;
25449;SDS011;13371;52.080;5.624;2023-10-13T03:23:28;14.05;;;9.30;;
25449;SDS011;13371;52.080;5.624;2023-10-13T03:26:10;14.07;;;8.82;;
25449;SDS011;13371;52.080;5.624;2023-10-13T03:28:35;15.30;;;8.75;;
25449;SDS011;13371;52.080;5.624;2023-10-13T03:31:03;16.00;;;8.77;;
25449;SDS011;13371;52.080;5.624;2023-10-13T03:33:29;16.52;;;8.75;;
25449;SDS011;13371;52.080;5.624;2023-10-13T03:35:57;16.17;;;9.00;;
25449;SDS011;13371;52.080;5.624;2023-10-13T03:38:30;14.95;;;8.57;;
25449;SDS011;13371;52.080;5.624;2023-10-13T03:41:01;14.48;;;8.57;;
25449;SDS011;13371;52.080;5.624;2023-10-13T03:43:43;18.13;;;8.45;;
25449;SDS011;13371;52.080;5.624;2023-10-13T03:48:46;13.75;;;7.45;;
25449;SDS011;13371;52.080;5.624;2023-10-13T03:51:26;16.42;;;7.75;;
25449;SDS011;13371;52.080;5.624;2023-10-13T03:53:56;13.85;;;6.97;;
25449;SDS011;13371;52.080;5.624;2023-10-13T03:56:22;14.52;;;7.72;;
25449;SDS011;13371;52.080;5.624;2023-10-13T03:58:51;14.38;;;7.63;;
25449;SDS011;13371;52.080;5.624;2023-10-13T04:01:19;15.73;;;8.13;;
25449;SDS011;13371;52.080;5.624;2023-10-13T04:03:57;14.73;;;6.90;;
25449;SDS011;13371;52.080;5.624;2023-10-13T04:06:32;15.07;;;7.60;;
25449;SDS011;13371;52.080;5.624;2023-10-13T04:09:22;10.90;;;7.35;;
25449;SDS011;13371;52.080;5.624;2023-10-13T04:12:00;12.50;;;7.30;;
25449;SDS011;13371;52.080;5.624;2023-10-13T04:14:30;13.60;;;7.32;;
25449;SDS011;13371;52.080;5.624;2023-10-13T04:17:14;11.70;;;7.32;;
25449;SDS011;13371;52.080;5.624;2023-10-13T04:19:43;13.00;;;7.43;;
25449;SDS011;13371;52.080;5.624;2023-10-13T04:22:27;14.20;;;6.88;;
25449;SDS011;13371;52.080;5.624;2023-10-13T04:28:08;15.25;;;8.30;;
25449;SDS011;13371;52.080;5.624;2023-10-13T04:30:40;13.30;;;7.30;;
25449;SDS011;13371;52.080;5.624;2023-10-13T04:33:18;17.90;;;8.13;;
25449;SDS011;13371;52.080;5.624;2023-10-13T04:36:05;13.45;;;6.78;;
25449;SDS011;13371;52.080;5.624;2023-10-13T04:38:46;15.95;;;7.63;;
25449;SDS011;13371;52.080;5.624;2023-10-13T04:41:24;13.55;;;7.55;;
25449;SDS011;13371;52.080;5.624;2023-10-13T04:44:09;13.85;;;7.47;;
25449;SDS011;13371;52.080;5.624;2023-10-13T04:46:54;12.13;;;8.00;;
25449;SDS011;13371;52.080;5.624;2023-10-13T04:49:30;15.80;;;7.57;;
25449;SDS011;13371;52.080;5.624;2023-10-13T04:52:00;10.50;;;7.40;;
25449;SDS011;13371;52.080;5.624;2023-10-13T04:54:33;17.42;;;7.97;;
25449;SDS011;13371;52.080;5.624;2023-10-13T04:57:10;11.23;;;7.75;;
25449;SDS011;13371;52.080;5.624;2023-10-13T04:59:55;18.45;;;8.20;;
25449;SDS011;13371;52.080;5.624;2023-10-13T05:02:42;12.82;;;8.30;;
25449;SDS011;13371;52.080;5.624;2023-10-13T05:05:20;13.88;;;9.05;;
25449;SDS011;13371;52.080;5.624;2023-10-13T05:07:50;17.30;;;9.60;;
25449;SDS011;13371;52.080;5.624;2023-10-13T05:10:35;19.42;;;11.10;;
25449;SDS011;13371;52.080;5.624;2023-10-13T05:13:20;19.98;;;11.40;;
25449;SDS011;13371;52.080;5.624;2023-10-13T05:16:04;18.50;;;10.90;;
25449;SDS011;13371;52.080;5.624;2023-10-13T05:18:48;22.42;;;12.15;;
25449;SDS011;13371;52.080;5.624;2023-10-13T05:21:32;20.77;;;12.27;;
25449;SDS011;13371;52.080;5.624;2023-10-13T05:24:16;23.77;;;13.75;;
25449;SDS011;13371;52.080;5.624;2023-10-13T05:27:01;21.02;;;11.90;;
25449;SDS011;13371;52.080;5.624;2023-10-13T05:29:46;21.35;;;11.98;;
25449;SDS011;13371;52.080;5.624;2023-10-13T05:32:31;23.80;;;11.23;;
25449;SDS011;13371;52.080;5.624;2023-10-13T05:35:16;15.48;;;10.88;;
25449;SDS011;13371;52.080;5.624;2023-10-13T05:38:00;21.23;;;9.25;;
25449;SDS011;13371;52.080;5.624;2023-10-13T05:40:51;16.40;;;9.38;;
25449;SDS011;13371;52.080;5.624;2023-10-13T05:43:43;13.40;;;9.30;;
25449;SDS011;13371;52.080;5.624;2023-10-13T05:46:28;17.95;;;9.30;;
25449;SDS011;13371;52.080;5.624;2023-10-13T05:49:03;16.10;;;9.35;;
25449;SDS011;13371;52.080;5.624;2023-10-13T05:51:32;17.35;;;9.88;;
25449;SDS011;13371;52.080;5.624;2023-10-13T05:54:08;24.98;;;10.10;;
25449;SDS011;13371;52.080;5.624;2023-10-13T05:56:38;17.50;;;8.43;;
25449;SDS011;13371;52.080;5.624;2023-10-13T05:59:26;14.18;;;9.10;;
25449;SDS011;13371;52.080;5.624;2023-10-13T06:02:11;20.77;;;9.15;;
25449;SDS011;13371;52.080;5.624;2023-10-13T06:04:56;18.17;;;9.13;;
25449;SDS011;13371;52.080;5.624;2023-10-13T06:07:42;16.48;;;9.18;;
25449;SDS011;13371;52.080;5.624;2023-10-13T06:10:26;13.23;;;8.77;;
25449;SDS011;13371;52.080;5.624;2023-10-13T06:13:10;23.77;;;9.68;;
25449;SDS011;13371;52.080;5.624;2023-10-13T06:15:54;16.67;;;8.05;;
25449;SDS011;13371;52.080;5.624;2023-10-13T06:18:38;15.43;;;8.40;;
25449;SDS011;13371;52.080;5.624;2023-10-13T06:21:22;17.27;;;8.38;;
25449;SDS011;13371;52.080;5.624;2023-10-13T06:24:06;15.35;;;7.85;;
25449;SDS011;13371;52.080;5.624;2023-10-13T06:26:51;17.58;;;7.88;;
25449;SDS011;13371;52.080;5.624;2023-10-13T06:29:35;14.38;;;8.20;;
25449;SDS011;13371;52.080;5.624;2023-10-13T06:32:01;14.63;;;8.40;;
25449;SDS011;13371;52.080;5.624;2023-10-13T06:34:30;13.50;;;7.95;;
25449;SDS011;13371;52.080;5.624;2023-10-13T06:37:11;11.93;;;7.95;;
25449;SDS011;13371;52.080;5.624;2023-10-13T06:39:59;13.68;;;8.27;;
25449;SDS011;13371;52.080;5.624;2023-10-13T06:42:31;17.60;;;7.97;;
25449;SDS011;13371;52.080;5.624;2023-10-13T06:44:59;15.35;;;8.98;;
25449;SDS011;13371;52.080;5.624;2023-10-13T06:47:28;14.10;;;8.63;;
25449;SDS011;13371;52.080;5.624;2023-10-13T06:49:54;13.68;;;8.35;;
25449;SDS011;13371;52.080;5.624;2023-10-13T06:52:21;15.93;;;8.05;;
25449;SDS011;13371;52.080;5.624;2023-10-13T06:54:50;14.95;;;8.30;;
25449;SDS011;13371;52.080;5.624;2023-10-13T06:57:21;15.13;;;9.00;;
25449;SDS011;13371;52.080;5.624;2023-10-13T06:59:47;14.35;;;7.95;;
25449;SDS011;13371;52.080;5.624;2023-10-13T07:02:13;12.77;;;7.95;;
25449;SDS011;13371;52.080;5.624;2023-10-13T07:04:48;14.85;;;8.68;;
25449;SDS011;13371;52.080;5.624;2023-10-13T07:07:21;14.35;;;8.85;;
25449;SDS011;13371;52.080;5.624;2023-10-13T07:09:49;15.00;;;8.75;;
25449;SDS011;13371;52.080;5.624;2023-10-13T07:12:20;14.05;;;8.73;;
25449;SDS011;13371;52.080;5.624;2023-10-13T07:14:51;13.90;;;8.45;;
25449;SDS011;13371;52.080;5.624;2023-10-13T07:17:21;14.60;;;8.82;;
25449;SDS011;13371;52.080;5.624;2023-10-13T07:22:21;21.88;;;8.75;;
25449;SDS011;13371;52.080;5.624;2023-10-13T07:24:48;14.45;;;7.65;;
25449;SDS011;13371;52.080;5.624;2023-10-13T07:27:24;11.38;;;7.78;;
25449;SDS011;13371;52.080;5.624;2023-10-13T07:29:54;14.68;;;8.20;;
25449;SDS011;13371;52.080;5.624;2023-10-13T07:32:40;14.85;;;8.02;;
25449;SDS011;13371;52.080;5.624;2023-10-13T07:35:11;19.13;;;8.65;;
25449;SDS011;13371;52.080;5.624;2023-10-13T07:37:45;16.88;;;7.85;;
25449;SDS011;13371;52.080;5.624;2023-10-13T07:40:17;13.05;;;7.25;;
25449;SDS011;13371;52.080;5.624;2023-10-13T07:42:49;13.77;;;7.53;;
25449;SDS011;13371;52.080;5.624;2023-10-13T07:45:14;21.00;;;8.80;;
25449;SDS011;13371;52.080;5.624;2023-10-13T07:47:49;16.75;;;8.52;;
25449;SDS011;13371;52.080;5.624;2023-10-13T07:50:15;14.52;;;7.20;;
25449;SDS011;13371;52.080;5.624;2023-10-13T07:52:49;14.40;;;7.53;;
25449;SDS011;13371;52.080;5.624;2023-10-13T07:55:30;20.75;;;7.53;;
25449;SDS011;13371;52.080;5.624;2023-10-13T07:57:59;23.63;;;8.00;;
25449;SDS011;13371;52.080;5.624;2023-10-13T08:00:25;18.88;;;7.32;;
25449;SDS011;13371;52.080;5.624;2023-10-13T08:03:03;15.70;;;7.95;;
25449;SDS011;13371;52.080;5.624;2023-10-13T08:05:35;21.30;;;7.22;;
25449;SDS011;13371;52.080;5.624;2023-10-13T08:08:19;15.10;;;7.28;;
25449;SDS011;13371;52.080;5.624;2023-10-13T08:10:46;17.40;;;7.55;;
25449;SDS011;13371;52.080;5.624;2023-10-13T08:13:12;14.52;;;7.30;;
25449;SDS011;13371;52.080;5.624;2023-10-13T08:15:41;19.33;;;7.13;;
25449;SDS011;13371;52.080;5.624;2023-10-13T08:18:14;18.92;;;7.85;;
25449;SDS011;13371;52.080;5.624;2023-10-13T08:20:55;14.35;;;7.60;;
25449;SDS011;13371;52.080;5.624;2023-10-13T08:23:28;18.30;;;7.57;;
25449;SDS011;13371;52.080;5.624;2023-10-13T08:26:24;15.82;;;7.78;;
25449;SDS011;13371;52.080;5.624;2023-10-13T08:29:01;17.00;;;7.75;;
25449;SDS011;13371;52.080;5.624;2023-10-13T08:31:51;20.00;;;7.40;;
25449;SDS011;13371;52.080;5.624;2023-10-13T08:34:30;19.25;;;7.68;;
25449;SDS011;13371;52.080;5.624;2023-10-13T08:37:06;22.90;;;8.05;;
25449;SDS011;13371;52.080;5.624;2023-10-13T08:39:51;13.32;;;6.93;;
25449;SDS011;13371;52.080;5.624;2023-10-13T08:42:43;19.27;;;7.90;;
25449;SDS011;13371;52.080;5.624;2023-10-13T08:45:16;19.20;;;7.68;;
25449;SDS011;13371;52.080;5.624;2023-10-13T08:47:48;16.33;;;6.82;;
25449;SDS011;13371;52.080;5.624;2023-10-13T08:50:44;16.48;;;6.63;;
25449;SDS011;13371;52.080;5.624;2023-10-13T08:53:27;19.20;;;7.45;;
25449;SDS011;13371;52.080;5.624;2023-10-13T08:56:00;17.65;;;6.75;;
25449;SDS011;13371;52.080;5.624;2023-10-13T08:58:29;12.77;;;5.85;;
25449;SDS011;13371;52.080;5.624;2023-10-13T09:01:15;18.17;;;6.65;;
25449;SDS011;13371;52.080;5.624;2023-10-13T09:04:07;18.25;;;6.47;;
25449;SDS011;13371;52.080;5.624;2023-10-13T09:06:46;20.05;;;6.18;;
25449;SDS011;13371;52.080;5.624;2023-10-13T09:12:16;15.48;;;6.60;;
25449;SDS011;13371;52.080;5.624;2023-10-13T09:14:51;16.95;;;5.97;;
25449;SDS011;13371;52.080;5.624;2023-10-13T09:17:30;19.50;;;6.35;;
25449;SDS011;13371;52.080;5.624;2023-10-13T09:20:00;10.57;;;5.57;;
25449;SDS011;13371;52.080;5.624;2023-10-13T09:22:45;15.27;;;5.47;;
25449;SDS011;13371;52.080;5.624;2023-10-13T09:25:40;18.02;;;5.75;;
25449;SDS011;13371;52.080;5.624;2023-10-13T09:28:19;20.75;;;6.03;;
25449;SDS011;13371;52.080;5.624;2023-10-13T09:33:13;16.45;;;6.05;;
25449;SDS011;13371;52.080;5.624;2023-10-13T09:35:53;16.67;;;5.63;;
25449;SDS011;13371;52.080;5.624;2023-10-13T09:38:19;15.45;;;5.57;;
25449;SDS011;13371;52.080;5.624;2023-10-13T09:40:45;15.23;;;6.28;;
25449;SDS011;13371;52.080;5.624;2023-10-13T09:43:15;15.32;;;6.13;;
25449;SDS011;13371;52.080;5.624;2023-10-13T09:45:46;14.85;;;5.20;;
25449;SDS011;13371;52.080;5.624;2023-10-13T09:48:37;16.92;;;5.97;;
25449;SDS011;13371;52.080;5.624;2023-10-13T09:51:09;12.60;;;5.70;;
25449;SDS011;13371;52.080;5.624;2023-10-13T09:53:37;14.18;;;5.82;;
25449;SDS011;13371;52.080;5.624;2023-10-13T09:58:51;14.85;;;5.88;;
25449;SDS011;13371;52.080;5.624;2023-10-13T10:01:39;13.48;;;5.35;;
25449;SDS011;13371;52.080;5.624;2023-10-13T10:04:17;16.17;;;5.15;;
25449;SDS011;13371;52.080;5.624;2023-10-13T10:06:54;12.25;;;5.88;;
25449;SDS011;13371;52.080;5.624;2023-10-13T10:09:26;12.52;;;5.35;;
25449;SDS011;13371;52.080;5.624;2023-10-13T10:17:59;18.95;;;5.65;;
25449;SDS011;13371;52.080;5.624;2023-10-13T10:20:35;17.98;;;5.45;;
25449;SDS011;13371;52.080;5.624;2023-10-13T10:23:07;13.00;;;5.53;;
25449;SDS011;13371;52.080;5.624;2023-10-13T10:25:46;20.15;;;5.80;;
25449;SDS011;13371;52.080;5.624;2023-10-13T10:28:16;12.68;;;5.82;;
25449;SDS011;13371;52.080;5.624;2023-10-13T10:30:44;15.15;;;5.55;;
25449;SDS011;13371;52.080;5.624;2023-10-13T10:33:10;16.80;;;6.03;;
25449;SDS011;13371;52.080;5.624;2023-10-13T10:35:46;13.98;;;5.32;;
25449;SDS011;13371;52.080;5.624;2023-10-13T10:38:23;14.45;;;5.90;;
25449;SDS011;13371;52.080;5.624;2023-10-13T10:40:50;19.30;;;5.85;;
25449;SDS011;13371;52.080;5.624;2023-10-13T10:43:18;19.85;;;5.82;;
25449;SDS011;13371;52.080;5.624;2023-10-13T10:45:47;17.90;;;6.22;;
25449;SDS011;13371;52.080;5.624;2023-10-13T10:48:15;16.40;;;5.43;;
25449;SDS011;13371;52.080;5.624;2023-10-13T10:50:43;23.52;;;6.32;;
25449;SDS011;13371;52.080;5.624;2023-10-13T10:53:18;12.82;;;5.05;;
25449;SDS011;13371;52.080;5.624;2023-10-13T10:55:46;16.25;;;5.40;;
25449;SDS011;13371;52.080;5.624;2023-10-13T10:58:12;16.48;;;6.40;;
25449;SDS011;13371;52.080;5.624;2023-10-13T11:01:03;10.93;;;5.05;;
25449;SDS011;13371;52.080;5.624;2023-10-13T11:03:36;18.30;;;6.10;;
25449;SDS011;13371;52.080;5.624;2023-10-13T11:06:03;22.77;;;6.30;;
25449;SDS011;13371;52.080;5.624;2023-10-13T11:08:35;17.80;;;5.63;;
25449;SDS011;13371;52.080;5.624;2023-10-13T11:11:02;22.30;;;6.65;;
25449;SDS011;13371;52.080;5.624;2023-10-13T11:13:43;16.75;;;5.80;;
25449;SDS011;13371;52.080;5.624;2023-10-13T11:16:44;14.52;;;5.30;;
25449;SDS011;13371;52.080;5.624;2023-10-13T11:19:15;19.95;;;6.65;;
25449;SDS011;13371;52.080;5.624;2023-10-13T11:21:51;15.65;;;5.88;;
25449;SDS011;13371;52.080;5.624;2023-10-13T11:24:18;16.02;;;5.38;;
25449;SDS011;13371;52.080;5.624;2023-10-13T11:26:46;13.55;;;6.00;;
25449;SDS011;13371;52.080;5.624;2023-10-13T11:29:18;17.83;;;5.70;;
25449;SDS011;13371;52.080;5.624;2023-10-13T11:31:48;13.43;;;5.38;;
25449;SDS011;13371;52.080;5.624;2023-10-13T11:34:24;16.23;;;6.75;;
25449;SDS011;13371;52.080;5.624;2023-10-13T11:36:50;15.05;;;5.53;;
25449;SDS011;13371;52.080;5.624;2023-10-13T11:39:16;19.23;;;5.82;;
25449;SDS011;13371;52.080;5.624;2023-10-13T11:41:48;14.48;;;5.63;;
25449;SDS011;13371;52.080;5.624;2023-10-13T11:44:20;15.63;;;6.00;;
25449;SDS011;13371;52.080;5.624;2023-10-13T11:46:46;12.50;;;6.18;;
25449;SDS011;13371;52.080;5.624;2023-10-13T11:49:11;19.80;;;6.47;;
25449;SDS011;13371;52.080;5.624;2023-10-13T11:56:43;17.20;;;5.80;;
25449;SDS011;13371;52.080;5.624;2023-10-13T11:59:09;20.48;;;5.82;;
25449;SDS011;13371;52.080;5.624;2023-10-13T12:01:49;18.05;;;6.55;;
25449;SDS011;13371;52.080;5.624;2023-10-13T12:04:34;12.13;;;5.38;;
25449;SDS011;13371;52.080;5.624;2023-10-13T12:07:23;13.75;;;6.30;;
25449;SDS011;13371;52.080;5.624;2023-10-13T12:09:52;20.63;;;5.60;;
25449;SDS011;13371;52.080;5.624;2023-10-13T12:12:21;14.23;;;5.82;;
25449;SDS011;13371;52.080;5.624;2023-10-13T12:14:52;11.45;;;5.38;;
25449;SDS011;13371;52.080;5.624;2023-10-13T12:17:19;21.80;;;5.80;;
25449;SDS011;13371;52.080;5.624;2023-10-13T12:19:59;12.68;;;5.15;;
25449;SDS011;13371;52.080;5.624;2023-10-13T12:22:34;15.57;;;6.05;;
25449;SDS011;13371;52.080;5.624;2023-10-13T12:25:03;22.60;;;5.57;;
25449;SDS011;13371;52.080;5.624;2023-10-13T12:27:30;19.02;;;5.30;;
25449;SDS011;13371;52.080;5.624;2023-10-13T12:30:11;13.18;;;5.20;;
25449;SDS011;13371;52.080;5.624;2023-10-13T12:32:39;16.70;;;5.53;;
25449;SDS011;13371;52.080;5.624;2023-10-13T12:35:18;18.45;;;5.25;;
25449;SDS011;13371;52.080;5.624;2023-10-13T12:37:55;21.80;;;5.40;;
25449;SDS011;13371;52.080;5.624;2023-10-13T12:40:30;19.77;;;6.30;;
25449;SDS011;13371;52.080;5.624;2023-10-13T12:43:14;14.77;;;4.97;;
25449;SDS011;13371;52.080;5.624;2023-10-13T12:45:58;17.33;;;5.57;;
25449;SDS011;13371;52.080;5.624;2023-10-13T12:48:42;19.80;;;5.25;;
25449;SDS011;13371;52.080;5.624;2023-10-13T12:51:39;13.55;;;5.95;;
25449;SDS011;13371;52.080;5.624;2023-10-13T12:54:06;13.52;;;5.75;;
25449;SDS011;13371;52.080;5.624;2023-10-13T12:59:08;14.20;;;5.15;;
25449;SDS011;13371;52.080;5.624;2023-10-13T13:01:38;17.98;;;5.70;;
25449;SDS011;13371;52.080;5.624;2023-10-13T13:04:07;19.25;;;5.32;;
25449;SDS011;13371;52.080;5.624;2023-10-13T13:06:51;19.05;;;5.50;;
25449;SDS011;13371;52.080;5.624;2023-10-13T13:11:53;19.02;;;5.45;;
25449;SDS011;13371;52.080;5.624;2023-10-13T13:14:25;21.02;;;5.13;;
25449;SDS011;13371;52.080;5.624;2023-10-13T13:16:57;19.88;;;5.80;;
25449;SDS011;13371;52.080;5.624;2023-10-13T13:19:35;18.20;;;5.70;;
25449;SDS011;13371;52.080;5.624;2023-10-13T13:22:03;17.48;;;5.78;;
25449;SDS011;13371;52.080;5.624;2023-10-13T13:24:30;15.25;;;6.10;;
25449;SDS011;13371;52.080;5.624;2023-10-13T13:26:57;17.05;;;5.10;;
25449;SDS011;13371;52.080;5.624;2023-10-13T13:29:28;21.35;;;5.95;;
25449;SDS011;13371;52.080;5.624;2023-10-13T13:31:54;10.77;;;5.40;;
25449;SDS011;13371;52.080;5.624;2023-10-13T13:34:20;15.65;;;5.47;;
25449;SDS011;13371;52.080;5.624;2023-10-13T13:36:46;13.55;;;5.93;;
25449;SDS011;13371;52.080;5.624;2023-10-13T13:39:17;19.05;;;6.00;;
25449;SDS011;13371;52.080;5.624;2023-10-13T13:41:56;24.48;;;6.43;;
25449;SDS011;13371;52.080;5.624;2023-10-13T13:44:24;14.27;;;6.20;;
25449;SDS011;13371;52.080;5.624;2023-10-13T13:47:00;14.43;;;5.90;;
25449;SDS011;13371;52.080;5.624;2023-10-13T13:49:30;21.25;;;6.45;;
25449;SDS011;13371;52.080;5.624;2023-10-13T13:52:04;22.42;;;7.10;;
25449;SDS011;13371;52.080;5.624;2023-10-13T13:54:30;16.17;;;5.93;;
25449;SDS011;13371;52.080;5.624;2023-10-13T13:56:56;19.05;;;6.78;;
25449;SDS011;13371;52.080;5.624;2023-10-13T13:59:22;25.48;;;7.13;;
25449;SDS011;13371;52.080;5.624;2023-10-13T14:01:48;15.48;;;6.75;;
25449;SDS011;13371;52.080;5.624;2023-10-13T14:04:13;17.95;;;6.45;;
25449;SDS011;13371;52.080;5.624;2023-10-13T14:06:42;20.70;;;6.97;;
25449;SDS011;13371;52.080;5.624;2023-10-13T14:09:09;14.73;;;6.00;;
25449;SDS011;13371;52.080;5.624;2023-10-13T14:11:57;11.10;;;5.57;;
25449;SDS011;13371;52.080;5.624;2023-10-13T14:14:42;13.50;;;5.82;;
25449;SDS011;13371;52.080;5.624;2023-10-13T14:17:20;17.08;;;6.13;;
25449;SDS011;13371;52.080;5.624;2023-10-13T14:19:53;22.42;;;6.00;;
25449;SDS011;13371;52.080;5.624;2023-10-13T14:22:23;14.98;;;6.43;;
25449;SDS011;13371;52.080;5.624;2023-10-13T14:24:50;15.63;;;6.10;;
25449;SDS011;13371;52.080;5.624;2023-10-13T14:29:51;22.45;;;6.30;;
25449;SDS011;13371;52.080;5.624;2023-10-13T14:32:19;15.32;;;5.95;;
25449;SDS011;13371;52.080;5.624;2023-10-13T14:34:49;18.15;;;6.20;;
25449;SDS011;13371;52.080;5.624;2023-10-13T14:37:20;12.65;;;5.32;;
25449;SDS011;13371;52.080;5.624;2023-10-13T14:39:53;17.75;;;5.72;;
25449;SDS011;13371;52.080;5.624;2023-10-13T14:42:25;19.02;;;6.57;;
25449;SDS011;13371;52.080;5.624;2023-10-13T14:44:52;20.25;;;6.32;;
25449;SDS011;13371;52.080;5.624;2023-10-13T14:47:24;17.15;;;5.95;;
25449;SDS011;13371;52.080;5.624;2023-10-13T14:49:53;16.77;;;5.88;;
25449;SDS011;13371;52.080;5.624;2023-10-13T14:52:20;16.13;;;5.65;;
25449;SDS011;13371;52.080;5.624;2023-10-13T14:54:46;13.20;;;5.72;;
25449;SDS011;13371;52.080;5.624;2023-10-13T14:57:13;12.70;;;5.32;;
25449;SDS011;13371;52.080;5.624;2023-10-13T14:59:39;14.20;;;5.72;;
25449;SDS011;13371;52.080;5.624;2023-10-13T15:02:04;20.92;;;6.60;;
25449;SDS011;13371;52.080;5.624;2023-10-13T15:04:30;11.32;;;6.03;;
25449;SDS011;13371;52.080;5.624;2023-10-13T15:06:58;17.60;;;6.00;;
25449;SDS011;13371;52.080;5.624;2023-10-13T15:09:26;21.30;;;7.10;;
25449;SDS011;13371;52.080;5.624;2023-10-13T15:11:53;15.90;;;6.15;;
25449;SDS011;13371;52.080;5.624;2023-10-13T15:14:18;15.40;;;5.95;;
25449;SDS011;13371;52.080;5.624;2023-10-13T15:16:48;11.10;;;5.70;;
25449;SDS011;13371;52.080;5.624;2023-10-13T15:19:14;17.73;;;6.18;;
25449;SDS011;13371;52.080;5.624;2023-10-13T15:21:41;13.90;;;6.68;;
25449;SDS011;13371;52.080;5.624;2023-10-13T15:24:08;19.75;;;7.20;;
25449;SDS011;13371;52.080;5.624;2023-10-13T15:26:40;16.45;;;7.00;;
25449;SDS011;13371;52.080;5.624;2023-10-13T15:29:10;16.98;;;7.40;;
25449;SDS011;13371;52.080;5.624;2023-10-13T15:31:40;25.58;;;7.47;;
25449;SDS011;13371;52.080;5.624;2023-10-13T15:34:11;14.85;;;6.60;;
25449;SDS011;13371;52.080;5.624;2023-10-13T15:36:40;21.23;;;7.60;;
25449;SDS011;13371;52.080;5.624;2023-10-13T15:39:08;15.23;;;6.28;;
25449;SDS011;13371;52.080;5.624;2023-10-13T15:41:35;20.50;;;7.00;;
25449;SDS011;13371;52.080;5.624;2023-10-13T15:44:05;17.92;;;7.00;;